Cooksville, Illinois
Current Conditions -  °F | °C
As of 10:56 PM on Saturday 25 Oct 2014 (Local Time) from KBMI Reporting Station
Clear Clear  
Wind Chill: 60°   Ceiling: Unl
Heat Index: 60°   Visibility: 10mi
Dew Point: 35°   Wind: 12mph
Humidity: 39%   Direction: 320°NW
Pressure: 30.03"   Gusts: NA
Location:  40.54°N, 88.72°W
Report Text: KBMI 260356Z AUTO 32010KT 10SM CLR 16/02 A3003 RMK AO2 T01550016 SLP165
Loading
Personal Weather Stations






























Interactive Weather Map New forecast layout! Learn more

10-Day Weather Forecast

Advertisements
Track Severe Weather on mobile